Time;durP1;ratioP1;P1;durP2;ratioP2;P2;SDS_P1;SDS_P2;PMS_P1;PMS_P2;Temp;Humidity;BMP_temperature;BMP_pressure;BME280_temperature;BME280_humidity;BME280_pressure;Samples;Min_cycle;Max_cycle;Signal;HPM_P1;HPM_P2
2022/05/23 00:00:37;;;;;;;;;4.00;4.00;;;;;21.02;52.57;99985.56;5095205;28;45275;-66
2022/05/23 00:03:03;;;;;;;;;6.33;6.00;;;;;21.07;52.88;100022.56;5096130;28;45357;-65
2022/05/23 00:05:28;;;;;;;;;7.00;5.00;;;;;21.05;53.01;100009.94;5097494;28;45143;-66
2022/05/23 00:07:55;;;;;;;;;6.00;5.00;;;;;21.08;52.91;100005.31;5098100;28;45405;-66
2022/05/23 00:10:21;;;;;;;;;4.00;4.00;;;;;20.96;52.67;99984.81;5098291;28;45121;-65
2022/05/23 00:12:47;;;;;;;;;5.00;3.00;;;;;21.13;52.79;100010.59;5097768;28;45156;-66
2022/05/23 00:15:13;;;;;;;;;5.67;3.00;;;;;21.17;52.31;100020.47;5097437;28;45757;-65
2022/05/23 00:17:38;;;;;;;;;5.67;4.00;;;;;21.12;52.31;100004.28;5097489;28;45013;-66
2022/05/23 00:20:07;;;;;;;;;6.00;4.33;;;;;21.14;52.60;100001.53;5097212;28;45567;-66
2022/05/23 00:22:32;;;;;;;;;5.67;5.00;;;;;21.11;52.32;99994.34;5097838;28;45151;-65
2022/05/23 00:24:58;;;;;;;;;4.00;4.00;;;;;20.85;52.17;99934.47;5096098;28;45646;-66
2022/05/23 00:27:25;;;;;;;;;3.00;3.00;;;;;21.09;52.14;99970.91;5096017;28;45184;-67
2022/05/23 00:29:51;;;;;;;;;4.67;4.67;;;;;21.21;52.03;99977.78;5095964;28;45404;-66
2022/05/23 00:35:20;;;;;;;;;4.33;3.33;;;;;21.24;52.01;99964.13;5095997;28;45196;-66
2022/05/23 00:37:47;;;;;;;;;5.00;5.00;;;;;21.26;51.94;99963.13;5096682;28;45166;-65
2022/05/23 00:40:30;;;;;;;;;4.00;4.00;;;;;21.29;51.91;99959.44;5095313;28;45447;-65
2022/05/23 00:43:13;;;;;;;;;5.00;4.00;;;;;21.25;52.13;99953.22;5096654;28;45147;-65
2022/05/23 00:45:53;;;;;;;;;3.33;2.33;;;;;21.04;51.95;99915.84;5072063;28;47173;-66
2022/05/23 00:48:23;;;;;;;;;5.00;5.00;;;;;21.17;52.09;99929.00;5094362;28;45032;-65
2022/05/23 00:50:57;;;;;;;;;4.00;4.00;;;;;21.23;52.24;99944.19;5096290;28;45144;-68
2022/05/23 00:53:35;;;;;;;;;3.67;3.00;;;;;21.17;52.02;99928.09;5091450;28;45461;-66
2022/05/23 00:56:01;;;;;;;;;5.00;4.00;;;;;21.10;52.03;99913.81;5090703;28;46707;-69
2022/05/23 00:58:34;;;;;;;;;5.33;4.33;;;;;21.21;51.90;99928.91;5089348;28;45039;-66
2022/05/23 01:01:04;;;;;;;;;4.00;4.00;;;;;21.23;52.09;99933.31;5092620;28;45453;-67
2022/05/23 01:03:30;;;;;;;;;4.00;4.00;;;;;21.11;51.97;99912.00;5090904;28;45044;-66
2022/05/23 01:05:56;;;;;;;;;3.00;3.00;;;;;21.25;51.73;99928.75;5092135;28;46305;-66
2022/05/23 01:08:22;;;;;;;;;5.00;5.00;;;;;21.06;51.74;99890.41;5092487;28;45118;-66
2022/05/23 01:10:48;;;;;;;;;4.00;4.00;;;;;21.23;51.92;99922.47;5092604;28;45161;-67
2022/05/23 01:13:15;;;;;;;;;3.00;3.00;;;;;21.09;51.72;99884.88;5093310;28;44976;-67
2022/05/23 01:15:45;;;;;;;;;4.33;3.67;;;;;21.16;51.75;99894.59;5092790;28;45628;-65
2022/05/23 01:18:11;;;;;;;;;3.00;3.00;;;;;21.14;51.91;99884.75;5090215;28;45103;-66
2022/05/23 01:20:36;;;;;;;;;4.33;4.33;;;;;21.01;51.94;99865.22;5091037;28;45001;-67
2022/05/23 01:23:14;;;;;;;;;3.00;2.33;;;;;21.12;52.12;99875.75;5088675;28;45239;-66
2022/05/23 01:25:45;;;;;;;;;3.00;3.00;;;;;21.03;51.98;99860.59;5090508;28;45592;-66
2022/05/23 01:28:11;;;;;;;;;3.00;3.00;;;;;21.08;52.22;99858.63;5090829;28;45222;-66
2022/05/23 01:30:40;;;;;;;;;6.67;4.33;;;;;21.08;52.05;99855.91;5084424;28;45247;-66
2022/05/23 01:33:06;;;;;;;;;5.00;5.00;;;;;21.04;52.30;99845.22;5092704;28;44918;-68
2022/05/23 01:35:32;;;;;;;;;4.00;4.00;;;;;21.03;52.69;99840.72;5090169;28;46086;-66
2022/05/23 01:37:57;;;;;;;;;5.00;3.33;;;;;20.99;52.63;99835.38;5090847;28;45072;-68
2022/05/23 01:40:23;;;;;;;;;5.00;5.00;;;;;21.03;52.63;99838.88;5090535;28;45063;-66
2022/05/23 01:42:49;;;;;;;;;6.00;6.00;;;;;21.02;52.42;99828.06;5091484;28;45331;-68
2022/05/23 01:45:22;;;;;;;;;5.00;5.00;;;;;20.59;52.40;99746.09;5090663;28;45539;-65
2022/05/23 01:47:48;;;;;;;;;4.00;4.00;;;;;20.96;52.36;99811.03;5090368;28;45153;-66
2022/05/23 01:50:13;;;;;;;;;4.00;4.00;;;;;20.89;52.65;99793.16;5091579;28;45241;-65
2022/05/23 01:52:39;;;;;;;;;4.67;4.00;;;;;20.60;52.63;99735.19;5089960;28;45553;-66
2022/05/23 01:55:05;;;;;;;;;4.00;4.00;;;;;20.80;52.86;99764.50;5088962;28;45587;-68
2022/05/23 01:57:32;;;;;;;;;4.33;4.33;;;;;20.90;53.14;99791.34;5086174;28;45483;-67
2022/05/23 02:02:44;;;;;;;;;5.67;5.33;;;;;20.83;53.15;99784.31;5091316;28;45413;-66
2022/05/23 02:05:10;;;;;;;;;4.33;4.33;;;;;20.74;53.16;99761.97;5091069;28;45845;-67
2022/05/23 02:07:36;;;;;;;;;4.67;3.00;;;;;20.83;53.32;99779.78;5090971;27;45372;-65
2022/05/23 02:10:02;;;;;;;;;4.00;2.33;;;;;20.78;53.26;99769.06;5086947;28;45079;-66
2022/05/23 02:12:27;;;;;;;;;5.00;5.00;;;;;20.76;53.26;99770.06;5085270;28;45090;-67
2022/05/23 02:14:52;;;;;;;;;4.67;4.00;;;;;20.72;53.55;99766.56;5072201;28;45978;-66
2022/05/23 02:17:18;;;;;;;;;6.67;3.00;;;;;20.69;54.15;99773.88;5091998;28;44988;-65
2022/05/23 02:19:43;;;;;;;;;4.67;4.67;;;;;20.50;53.76;99759.97;5090783;28;45490;-65
2022/05/23 02:22:09;;;;;;;;;6.67;5.00;;;;;20.67;54.02;99798.34;5091061;28;45031;-65
2022/05/23 02:24:34;;;;;;;;;7.67;4.67;;;;;20.63;54.06;99799.41;5089717;28;45174;-66
2022/05/23 02:27:00;;;;;;;;;6.00;5.00;;;;;20.40;54.27;99776.50;5090216;28;45204;-65
2022/05/23 02:29:26;;;;;;;;;4.00;4.00;;;;;20.49;54.45;99791.66;5090105;28;45225;-66
2022/05/23 02:31:51;;;;;;;;;4.33;4.33;;;;;20.57;53.98;99810.41;5087357;28;45337;-69
2022/05/23 02:34:18;;;;;;;;;5.00;5.00;;;;;20.55;54.65;99805.00;5089114;28;46911;-67
2022/05/23 02:36:44;;;;;;;;;5.33;5.33;;;;;20.52;54.44;99802.38;5090270;28;44917;-65
2022/05/23 02:39:09;;;;;;;;;4.00;4.00;;;;;20.39;54.48;99784.69;5090487;28;45351;-67
2022/05/23 02:41:35;;;;;;;;;7.00;4.33;;;;;20.44;54.59;99799.91;5090575;28;45094;-65
2022/05/23 02:44:01;;;;;;;;;6.00;4.00;;;;;20.34;54.57;99792.06;5089687;28;45621;-65
2022/05/23 02:46:26;;;;;;;;;6.00;5.00;;;;;20.44;54.60;99809.84;5085957;28;45225;-65
2022/05/23 02:48:51;;;;;;;;;5.67;5.67;;;;;20.36;54.52;99788.41;5090279;28;45045;-66
2022/05/23 02:51:17;;;;;;;;;3.00;3.00;;;;;20.25;54.53;99763.41;5086661;28;45338;-67
2022/05/23 02:53:42;;;;;;;;;4.33;4.33;;;;;20.40;54.43;99798.22;5085183;28;46023;-67
2022/05/23 02:56:08;;;;;;;;;5.00;5.00;;;;;20.27;54.83;99785.94;5090186;28;45517;-66
2022/05/23 02:58:33;;;;;;;;;8.00;4.33;;;;;20.40;55.15;99802.75;5089668;28;44998;-65
2022/05/23 03:00:59;;;;;;;;;3.67;3.33;;;;;20.26;54.95;99784.19;5089183;28;45144;-66
2022/05/23 03:03:24;;;;;;;;;5.00;5.00;;;;;20.38;55.00;99797.38;5090021;28;45580;-65
2022/05/23 03:05:51;;;;;;;;;4.33;4.33;;;;;20.37;55.02;99795.59;5090413;28;44909;-66
2022/05/23 03:08:21;;;;;;;;;6.00;3.33;;;;;20.37;55.34;99792.88;5071931;28;45334;-65
2022/05/23 03:10:48;;;;;;;;;5.00;5.00;;;;;20.40;55.39;99802.75;5085432;28;44933;-65
2022/05/23 03:13:13;;;;;;;;;5.00;5.00;;;;;20.44;55.25;99815.28;5089195;28;45227;-65
2022/05/23 03:15:39;;;;;;;;;4.00;4.00;;;;;20.44;54.84;99818.00;5086996;28;45164;-66
2022/05/23 03:18:05;;;;;;;;;6.00;5.00;;;;;20.49;55.05;99826.94;5070472;28;44985;-68
2022/05/23 03:20:30;;;;;;;;;4.33;3.00;;;;;20.54;54.52;99824.06;5089749;28;45260;-68
2022/05/23 03:28:26;;;;;;;;;5.33;4.33;;;;;20.32;54.79;99753.28;5087352;28;45330;-65
2022/05/23 03:30:52;;;;;;;;;6.00;4.00;;;;;20.59;54.43;99787.72;5091346;28;44736;-67
2022/05/23 03:33:17;;;;;;;;;6.00;6.00;;;;;20.44;54.64;99759.22;5088875;28;44984;-66
2022/05/23 03:35:43;;;;;;;;;6.00;4.00;;;;;20.64;54.47;99775.84;5088543;28;45773;-66
2022/05/23 03:38:10;;;;;;;;;5.67;5.00;;;;;20.61;54.32;99755.09;5086150;28;45002;-65
2022/05/23 03:40:37;;;;;;;;;6.00;6.00;;;;;20.66;54.65;99755.00;5092034;28;45166;-65
2022/05/23 03:43:03;;;;;;;;;5.67;5.67;;;;;20.49;54.34;99715.69;5090602;28;45887;-66
2022/05/23 03:45:30;;;;;;;;;5.00;5.00;;;;;20.60;54.32;99729.78;5087859;28;45457;-66
2022/05/23 03:47:56;;;;;;;;;6.00;6.00;;;;;20.52;54.48;99715.56;5091347;28;45083;-65
2022/05/23 03:50:25;;;;;;;;;6.33;6.00;;;;;20.57;54.50;99728.97;5092096;28;45172;-65
2022/05/23 03:52:52;;;;;;;;;11.67;10.33;;;;;20.61;55.12;99745.13;5092220;28;45209;-67
2022/05/23 03:55:17;;;;;;;;;13.67;13.00;;;;;20.35;55.32;99728.75;5092185;28;45109;-66
2022/05/23 03:57:43;;;;;;;;;5.67;5.67;;;;;20.47;55.04;99762.78;5092279;28;45118;-66
2022/05/23 04:00:12;;;;;;;;;5.00;5.00;;;;;20.37;55.22;99733.19;5092348;28;45111;-66
2022/05/23 04:02:37;;;;;;;;;9.67;8.00;;;;;20.35;55.67;99745.91;5091670;28;45207;-66
2022/05/23 04:05:04;;;;;;;;;6.00;6.00;;;;;20.18;55.60;99727.44;5089282;28;45359;-66
2022/05/23 04:07:30;;;;;;;;;6.00;5.00;;;;;20.38;55.76;99739.53;5088239;28;45869;-65
2022/05/23 04:09:56;;;;;;;;;7.67;6.67;;;;;20.18;55.71;99703.03;5084058;28;45250;-64
2022/05/23 04:12:21;;;;;;;;;9.67;5.67;;;;;20.30;55.67;99723.47;5088477;28;45842;-65
2022/05/23 04:14:47;;;;;;;;;5.33;5.33;;;;;19.82;55.58;99626.41;5089574;28;45055;-65
2022/05/23 04:17:12;;;;;;;;;7.33;6.00;;;;;20.40;55.61;99695.13;5089351;28;45313;-67
2022/05/23 04:19:37;;;;;;;;;6.33;6.33;;;;;20.39;55.49;99700.59;5089166;28;45293;-65
2022/05/23 04:22:03;;;;;;;;;6.00;6.00;;;;;20.36;56.22;99709.72;5088807;28;45365;-65
2022/05/23 04:24:28;;;;;;;;;8.00;5.00;;;;;19.96;55.72;99631.41;5086731;27;45279;-66
2022/05/23 04:26:56;;;;;;;;;4.00;4.00;;;;;20.41;55.46;99712.31;5089089;28;45405;-67
2022/05/23 04:29:22;;;;;;;;;7.00;5.33;;;;;20.46;55.63;99704.00;5089157;27;45194;-65
2022/05/23 04:31:48;;;;;;;;;6.00;6.00;;;;;20.34;55.84;99662.78;5090870;28;45386;-67
2022/05/23 04:36:57;;;;;;;;;8.00;8.00;;;;;20.37;56.66;99629.22;5091496;28;45358;-65
2022/05/23 04:39:23;;;;;;;;;6.00;4.33;;;;;20.52;56.86;99660.41;5091640;28;44901;-66
2022/05/23 04:41:49;;;;;;;;;3.67;3.67;;;;;20.46;57.05;99641.59;5092305;28;45664;-65
2022/05/23 04:44:14;;;;;;;;;5.00;5.00;;;;;20.50;57.56;99644.16;5088048;28;45240;-65
2022/05/23 04:49:41;;;;;;;;;8.67;5.00;;;;;20.51;57.47;99664.03;5090680;28;45012;-64
2022/05/23 04:52:11;;;;;;;;;5.67;4.00;;;;;20.42;57.90;99663.41;5093188;28;46002;-65
2022/05/23 04:54:38;;;;;;;;;4.00;4.00;;;;;20.49;58.46;99677.69;5091689;28;45331;-66
2022/05/23 04:57:03;;;;;;;;;5.00;4.00;;;;;20.37;58.17;99649.09;5091573;28;45161;-66
2022/05/23 04:59:29;;;;;;;;;3.00;3.00;;;;;20.46;58.33;99666.00;5090788;28;44924;-67
2022/05/23 05:01:54;;;;;;;;;5.67;4.33;;;;;20.53;58.12;99670.34;5089204;28;45707;-66
2022/05/23 05:04:20;;;;;;;;;6.00;6.00;;;;;20.52;58.12;99676.69;5091973;28;45353;-65
2022/05/23 05:06:45;;;;;;;;;6.67;4.33;;;;;20.54;58.16;99662.16;5084081;28;45173;-65
2022/05/23 05:09:10;;;;;;;;;7.67;6.67;;;;;20.57;58.32;99655.72;5087550;28;45256;-65
2022/05/23 05:11:37;;;;;;;;;4.33;4.33;;;;;20.38;59.00;99631.91;5091913;28;45592;-66
2022/05/23 05:14:05;;;;;;;;;5.00;5.00;;;;;20.47;58.82;99632.53;5088862;28;45055;-66
2022/05/23 05:16:31;;;;;;;;;5.67;5.67;;;;;20.47;58.72;99624.41;5091604;28;45437;-66
2022/05/23 05:18:56;;;;;;;;;20.25;19.50;;;;;20.47;58.75;99616.25;5091985;28;45238;-66
2022/05/23 05:21:21;;;;;;;;;10.33;9.67;;;;;20.51;59.04;99629.69;5085542;28;45602;-65
2022/05/23 05:23:47;;;;;;;;;5.00;4.00;;;;;20.39;59.08;99628.25;5091043;28;45193;-66
2022/05/23 05:26:12;;;;;;;;;6.00;6.00;;;;;20.37;59.11;99638.25;5092037;28;45178;-67
2022/05/23 05:28:38;;;;;;;;;6.00;4.00;;;;;20.30;58.85;99603.25;5071447;28;45181;-65
2022/05/23 05:31:17;;;;;;;;;9.67;7.33;;;;;20.47;58.88;99617.13;5071549;28;47291;-66
2022/05/23 05:33:52;;;;;;;;;9.33;7.00;;;;;20.44;58.80;99623.56;5091652;28;45156;-65
2022/05/23 05:36:23;;;;;;;;;7.33;6.33;;;;;20.50;59.08;99625.19;5089656;28;44930;-67
2022/05/23 05:39:00;;;;;;;;;6.00;6.00;;;;;20.51;59.21;99624.25;5084794;28;45128;-65
2022/05/23 05:41:32;;;;;;;;;8.67;8.67;;;;;20.53;59.50;99625.09;5089443;28;45483;-65
2022/05/23 05:44:03;;;;;;;;;7.33;7.33;;;;;20.53;59.50;99640.47;5089242;28;45178;-67
2022/05/23 05:46:34;;;;;;;;;10.33;8.00;;;;;20.44;60.52;99657.94;5089938;28;45370;-67
2022/05/23 05:49:04;;;;;;;;;8.00;8.00;;;;;20.32;60.25;99661.03;5081096;28;45346;-66
2022/05/23 05:51:31;;;;;;;;;7.00;7.00;;;;;20.29;60.63;99645.72;5090603;28;45386;-65
2022/05/23 05:53:57;;;;;;;;;10.00;8.33;;;;;20.31;60.34;99640.25;5089332;28;45620;-68
2022/05/23 05:56:23;;;;;;;;;6.00;6.00;;;;;20.39;60.42;99646.34;5085940;27;45988;-67
2022/05/23 05:58:49;;;;;;;;;9.67;8.67;;;;;20.14;60.69;99579.31;5085224;28;45743;-69
2022/05/23 06:01:14;;;;;;;;;8.67;6.67;;;;;20.46;60.85;99625.31;5080113;28;45363;-66
2022/05/23 06:03:40;;;;;;;;;12.00;12.00;;;;;20.53;60.90;99621.50;5087831;28;45140;-67
2022/05/23 06:11:34;;;;;;;;;12.67;9.33;;;;;20.43;60.17;99616.34;5089520;28;45287;-67
2022/05/23 06:14:02;;;;;;;;;8.33;8.33;;;;;20.55;59.72;99649.47;5086604;28;45271;-66
2022/05/23 06:16:30;;;;;;;;;9.00;9.00;;;;;20.50;60.06;99640.59;5084670;28;45336;-65
2022/05/23 06:18:56;;;;;;;;;12.00;7.33;;;;;20.53;60.76;99656.75;5084229;28;45355;-67
2022/05/23 06:21:23;;;;;;;;;7.00;6.00;;;;;20.44;60.52;99647.06;5090336;28;45374;-66
2022/05/23 06:23:49;;;;;;;;;7.67;7.67;;;;;20.48;60.36;99653.31;5092080;28;45140;-67
2022/05/23 06:26:16;;;;;;;;;10.00;10.00;;;;;20.47;60.47;99636.13;5090021;28;45476;-65
2022/05/23 06:28:43;;;;;;;;;12.00;10.67;;;;;20.54;60.51;99644.94;5089940;27;45045;-66
2022/05/23 06:31:09;;;;;;;;;10.00;10.00;;;;;20.48;60.49;99612.63;5079135;28;46189;-66
2022/05/23 06:33:36;;;;;;;;;12.00;11.00;;;;;20.46;60.68;99598.19;5088011;28;45479;-66
2022/05/23 06:36:03;;;;;;;;;9.67;8.33;;;;;20.62;60.63;99613.94;5081054;28;45475;-66
2022/05/23 06:38:28;;;;;;;;;7.33;6.00;;;;;20.58;60.74;99611.38;5088655;28;45286;-68
2022/05/23 06:40:54;;;;;;;;;10.00;7.67;;;;;20.57;60.71;99601.44;5091330;28;45494;-67
2022/05/23 06:43:19;;;;;;;;;8.00;8.00;;;;;20.64;61.14;99584.06;5088826;28;45250;-66
2022/05/23 06:45:46;;;;;;;;;16.00;15.25;;;;;20.74;60.62;99584.63;5085193;28;45384;-66
2022/05/23 06:48:12;;;;;;;;;18.75;15.00;;;;;20.71;60.25;99568.47;5085218;28;44998;-66
2022/05/23 06:50:38;;;;;;;;;6.00;6.00;;;;;20.82;60.79;99587.06;5089192;28;46152;-64
2022/05/23 06:53:03;;;;;;;;;10.67;10.67;;;;;20.85;60.99;99587.84;5068193;28;45299;-66
2022/05/23 06:55:29;;;;;;;;;9.00;6.67;;;;;20.79;60.70;99588.97;5072801;28;45269;-63
2022/05/23 06:57:55;;;;;;;;;9.67;9.00;;;;;20.29;60.74;99498.38;5090224;28;45381;-65
2022/05/23 07:00:20;;;;;;;;;14.67;9.33;;;;;20.66;61.33;99559.59;5085245;28;45536;-67
2022/05/23 07:02:46;;;;;;;;;13.00;10.00;;;;;20.74;60.99;99579.19;5075961;28;45327;-63
2022/05/23 07:13:24;;;;;;;;;11.67;8.67;;;;;20.77;61.20;99560.09;5074441;28;45545;-65
2022/05/23 07:15:50;;;;;;;;;9.33;9.33;;;;;20.78;61.58;99581.75;5074485;28;45313;-64
2022/05/23 07:18:17;;;;;;;;;12.00;8.00;;;;;20.80;61.70;99585.31;5074489;28;45346;-63
2022/05/23 07:20:43;;;;;;;;;13.00;10.00;;;;;20.53;61.92;99543.69;5074306;28;46201;-63
2022/05/23 07:23:09;;;;;;;;;8.67;6.67;;;;;20.83;61.84;99586.16;5074047;28;45561;-62
2022/05/23 07:25:35;;;;;;;;;13.00;10.00;;;;;20.88;61.85;99578.72;5073471;28;45353;-69
2022/05/23 07:28:00;;;;;;;;;13.00;10.50;;;;;20.86;61.82;99578.78;5074238;28;45489;-67
2022/05/23 07:30:26;;;;;;;;;16.50;13.50;;;;;20.64;61.46;99531.59;5074084;28;45443;-65
2022/05/23 07:32:51;;;;;;;;;7.33;7.00;;;;;20.89;61.58;99577.81;5073991;28;45454;-64
2022/05/23 07:35:18;;;;;;;;;9.33;8.33;;;;;20.49;61.66;99514.91;5074038;28;45428;-66
2022/05/23 07:37:43;;;;;;;;;10.33;8.33;;;;;20.90;61.86;99594.00;5074569;28;45498;-63
2022/05/23 07:40:09;;;;;;;;;11.33;11.33;;;;;20.92;62.04;99605.72;5073709;28;46923;-66
2022/05/23 07:42:36;;;;;;;;;8.33;7.33;;;;;20.88;62.18;99605.88;5073621;28;45317;-65
2022/05/23 07:45:02;;;;;;;;;17.33;12.33;;;;;20.88;62.08;99597.72;5055510;28;45429;-62
2022/05/23 07:47:28;;;;;;;;;12.33;10.00;;;;;20.88;62.09;99593.19;5074364;28;45576;-63
2022/05/23 07:49:53;;;;;;;;;9.67;9.67;;;;;20.88;62.00;99578.72;5073643;28;46318;-63
2022/05/23 07:52:18;;;;;;;;;17.33;12.33;;;;;20.90;62.79;99538.81;5073762;28;45423;-62
2022/05/23 08:02:52;;;;;;;;;13.00;10.67;;;;;21.08;62.67;99444.94;5073359;28;45336;-63
2022/05/23 08:05:18;;;;;;;;;11.67;10.00;;;;;21.54;62.44;99516.56;5075134;28;45522;-63
2022/05/23 08:07:44;;;;;;;;;15.67;11.33;;;;;21.72;61.78;99526.72;5077648;28;45486;-62
2022/05/23 08:10:10;;;;;;;;;12.00;12.00;;;;;21.76;61.47;99532.03;5077299;28;46232;-64
2022/05/23 08:12:36;;;;;;;;;13.67;10.00;;;;;21.62;61.80;99495.41;5077202;28;45342;-63
2022/05/23 08:15:03;;;;;;;;;12.00;11.00;;;;;21.86;61.73;99525.28;5077433;28;45518;-63
2022/05/23 08:17:28;;;;;;;;;13.67;13.00;;;;;21.92;62.33;99526.91;5070793;28;45426;-63
2022/05/23 08:19:54;;;;;;;;;14.67;12.67;;;;;21.88;63.03;99521.59;5076367;28;46004;-61
2022/05/23 08:22:20;;;;;;;;;17.67;15.67;;;;;21.76;63.95;99508.47;5076854;28;45527;-64
2022/05/23 08:24:46;;;;;;;;;17.67;13.33;;;;;21.67;64.10;99507.00;5077779;28;45259;-64
2022/05/23 08:27:11;;;;;;;;;18.00;18.00;;;;;21.45;64.85;99489.72;5077614;28;45625;-68
2022/05/23 08:29:37;;;;;;;;;10.33;10.33;;;;;21.73;65.05;99554.81;5077177;28;45437;-66
2022/05/23 08:32:09;;;;;;;;;17.67;14.33;;;;;21.62;65.23;99554.34;5058707;28;46244;-63
2022/05/23 08:34:35;;;;;;;;;15.33;13.00;;;;;20.74;65.72;99463.38;5076895;28;45472;-63
2022/05/23 08:37:01;;;;;;;;;19.67;15.67;;;;;21.31;66.05;99542.75;5077172;28;45421;-63
2022/05/23 08:39:26;;;;;;;;;16.25;16.25;;;;;21.10;66.41;99522.72;5076909;28;45398;-64
2022/05/23 08:41:53;;;;;;;;;13.00;11.00;;;;;21.16;66.09;99521.59;5076988;28;45461;-70
2022/05/23 08:44:43;;;;;;;;;10.00;9.33;;;;;21.25;66.20;99545.72;5077016;28;45322;-64
2022/05/23 08:47:20;;;;;;;;;15.33;11.67;;;;;21.17;65.22;99543.28;5077183;28;45622;-72
2022/05/23 08:49:55;;;;;;;;;9.67;9.67;;;;;20.89;64.94;99516.22;5076727;28;46121;-64
2022/05/23 08:52:40;;;;;;;;;16.00;14.67;;;;;21.03;65.19;99547.44;5077322;28;45407;-65
2022/05/23 08:55:46;;;;;;;;;11.33;10.67;;;;;20.99;65.39;99554.81;5076948;28;45652;-65
2022/05/23 08:58:18;;;;;;;;;12.00;10.00;;;;;20.90;64.70;99571.41;5014157;28;45493;-62
2022/05/23 09:00:48;;;;;;;;;15.00;12.67;;;;;20.60;65.07;99525.34;5062008;28;46666;-73
2022/05/23 09:03:30;;;;;;;;;11.67;11.33;;;;;20.76;65.04;99564.63;5078169;28;45307;-67
2022/05/23 09:06:06;;;;;;;;;13.00;10.67;;;;;20.70;64.99;99564.84;5076697;28;45548;-63
2022/05/23 09:08:38;;;;;;;;;12.67;12.33;;;;;20.47;65.05;99529.44;5071851;28;45478;-63
2022/05/23 09:11:18;;;;;;;;;14.33;13.00;;;;;20.69;65.30;99568.50;5076106;28;45492;-67
2022/05/23 09:13:45;;;;;;;;;9.67;9.67;;;;;20.76;64.65;99577.34;5076402;28;45385;-66
2022/05/23 09:16:12;;;;;;;;;15.67;11.67;;;;;20.66;64.85;99543.31;5056626;28;45456;-70
2022/05/23 09:18:51;;;;;;;;;13.00;11.67;;;;;20.72;64.27;99552.13;5076186;28;45336;-64
2022/05/23 09:21:17;;;;;;;;;14.00;13.00;;;;;20.62;64.36;99524.38;5075518;28;45678;-64
2022/05/23 09:23:50;;;;;;;;;21.50;20.75;;;;;20.74;64.19;99525.81;5075822;28;45281;-67
2022/05/23 09:26:24;;;;;;;;;12.00;11.67;;;;;20.80;62.99;99531.03;5076945;28;45397;-66
2022/05/23 09:28:51;;;;;;;;;12.67;12.67;;;;;21.02;62.77;99562.84;5076384;28;45521;-67
2022/05/23 09:31:31;;;;;;;;;17.00;13.33;;;;;21.09;62.83;99568.94;5075665;28;46624;-69
2022/05/23 09:33:57;;;;;;;;;14.00;14.00;;;;;21.03;62.12;99536.56;5075742;28;45500;-64
2022/05/23 09:36:37;;;;;;;;;13.67;12.67;;;;;21.13;61.94;99547.03;5076736;28;45402;-68
2022/05/23 09:39:04;;;;;;;;;7.33;7.00;;;;;21.32;61.75;99546.38;5053842;28;45446;-65
2022/05/23 09:50:06;;;;;;;;;14.67;12.00;;;;;21.45;60.91;99535.91;5075540;28;45485;-65
2022/05/23 09:52:36;;;;;;;;;15.00;15.00;;;;;21.38;59.93;99521.66;5074862;28;46072;-63
2022/05/23 09:55:07;;;;;;;;;12.00;11.00;;;;;21.48;59.42;99527.69;5074704;28;45385;-64
2022/05/23 09:57:52;;;;;;;;;15.33;13.33;;;;;21.56;59.04;99543.69;5075025;28;45542;-65
2022/05/23 10:00:17;;;;;;;;;27.00;25.25;;;;;21.59;59.38;99539.03;5075237;28;45528;-72
2022/05/23 10:03:01;;;;;;;;;17.50;15.00;;;;;21.58;58.52;99540.00;5075233;28;45476;-65
2022/05/23 10:05:31;;;;;;;;;20.33;19.00;;;;;21.54;58.18;99550.06;5071063;28;45381;-63
2022/05/23 10:08:00;;;;;;;;;16.33;16.33;;;;;21.41;58.16;99534.25;5074874;28;45369;-68
2022/05/23 10:10:34;;;;;;;;;22.00;21.25;;;;;21.46;57.81;99544.00;5075210;28;45488;-64
2022/05/23 10:13:25;;;;;;;;;22.00;16.67;;;;;21.40;57.58;99540.63;5056497;28;48367;-65
2022/05/23 10:15:57;;;;;;;;;14.33;13.00;;;;;21.17;57.51;99507.97;5074777;28;45383;-64
2022/05/23 10:18:31;;;;;;;;;20.25;17.00;;;;;21.27;57.55;99538.38;5074916;28;45790;-65
2022/05/23 10:20:59;;;;;;;;;21.67;18.33;;;;;21.13;57.79;99521.69;5074841;28;45456;-65
2022/05/23 10:23:30;;;;;;;;;14.00;13.25;;;;;21.23;58.08;99555.72;5074852;28;45401;-69
2022/05/23 10:26:13;;;;;;;;;20.00;19.25;;;;;20.97;58.15;99499.69;5075006;28;45577;-64
2022/05/23 10:28:48;;;;;;;;;18.75;18.75;;;;;21.31;57.87;99548.19;5074382;28;45319;-63
2022/05/23 10:31:28;;;;;;;;;16.00;16.00;;;;;21.24;58.00;99543.06;5074471;28;45327;-65
2022/05/23 10:34:01;;;;;;;;;21.25;17.75;;;;;21.20;58.74;99541.38;5074317;28;45407;-67
2022/05/23 10:36:30;;;;;;;;;20.00;18.25;;;;;21.22;57.94;99553.06;5074408;28;45468;-66
2022/05/23 10:42:22;;;;;;;;;19.67;18.00;;;;;21.17;58.27;99543.28;5074521;28;45529;-65
2022/05/23 10:44:56;;;;;;;;;23.25;20.25;;;;;21.22;58.56;99542.19;5010682;28;45895;-63
2022/05/23 10:47:58;;;;;;;;;20.67;17.33;;;;;21.11;59.62;99545.31;5064305;28;45556;-64
2022/05/23 10:50:33;;;;;;;;;25.50;22.00;;;;;21.04;60.50;99541.06;5056926;28;45447;-65
2022/05/23 10:53:17;;;;;;;;;33.50;30.50;;;;;21.02;61.24;99545.66;5055027;28;45444;-65
2022/05/23 10:55:49;;;;;;;;;20.00;18.00;;;;;20.98;61.33;99544.88;5074660;28;45632;-66
2022/05/23 10:58:56;;;;;;;;;27.50;24.00;;;;;20.97;61.69;99537.69;5074772;28;45668;-64
2022/05/23 11:01:40;;;;;;;;;25.25;23.50;;;;;20.93;61.91;99536.00;5031985;28;45522;-65
2022/05/23 11:04:27;;;;;;;;;24.00;20.75;;;;;20.92;61.98;99528.78;5074137;28;45469;-65
2022/05/23 11:06:58;;;;;;;;;31.50;24.50;;;;;20.82;61.66;99527.34;5074535;28;46205;-65
2022/05/23 11:09:55;;;;;;;;;26.25;21.50;;;;;20.74;62.47;99536.66;5075119;28;45485;-66
2022/05/23 11:12:42;;;;;;;;;22.25;22.25;;;;;20.52;62.88;99524.72;5052579;28;45532;-66
2022/05/23 11:15:17;;;;;;;;;23.50;23.25;;;;;20.66;62.53;99568.63;5075114;28;45495;-66
2022/05/23 11:17:58;;;;;;;;;26.00;23.50;;;;;20.34;62.57;99519.00;5074001;28;46377;-66
2022/05/23 11:20:29;;;;;;;;;26.50;24.00;;;;;20.57;62.72;99547.16;5074170;28;45522;-67
2022/05/23 11:23:36;;;;;;;;;29.50;29.25;;;;;20.63;63.02;99547.00;5074431;28;45551;-70
2022/05/23 11:26:24;;;;;;;;;22.25;21.00;;;;;20.65;63.14;99546.94;5051558;28;45533;-66
2022/05/23 11:34:57;;;;;;;;;23.25;22.50;;;;;20.12;65.51;99542.34;5074007;28;45501;-67
2022/05/23 11:37:49;;;;;;;;;23.00;23.00;;;;;20.02;66.46;99545.34;5050563;28;45363;-65
2022/05/23 11:40:28;;;;;;;;;25.50;22.50;;;;;20.03;67.18;99554.38;5073048;28;45858;-68
2022/05/23 11:43:01;;;;;;;;;29.50;25.75;;;;;19.90;67.78;99507.78;5073711;28;45449;-66
2022/05/23 11:48:35;;;;;;;;;25.50;23.75;;;;;20.50;67.32;99560.06;5073763;28;45471;-66
2022/05/23 11:51:12;;;;;;;;;30.50;25.25;;;;;20.61;66.14;99562.44;5072930;28;46201;-63
2022/05/23 11:53:43;;;;;;;;;24.00;21.25;;;;;20.38;65.00;99531.53;5073229;28;45425;-63
2022/05/23 11:56:30;;;;;;;;;22.25;21.75;;;;;20.49;65.21;99561.03;5067346;28;45503;-67
2022/05/23 11:58:56;;;;;;;;;25.50;21.75;;;;;20.32;65.44;99528.13;5070595;28;45435;-65
2022/05/23 12:01:26;;;;;;;;;27.50;22.50;;;;;20.45;64.60;99575.59;5073256;28;45511;-63
2022/05/23 12:03:51;;;;;;;;;24.25;23.50;;;;;20.43;64.69;99569.34;5073157;28;45345;-64
2022/05/23 12:06:17;;;;;;;;;28.25;23.00;;;;;20.40;65.33;99569.44;5073320;28;45503;-65
2022/05/23 12:09:02;;;;;;;;;21.00;20.00;;;;;20.31;65.18;99562.50;5073869;28;45424;-64
2022/05/23 12:11:33;;;;;;;;;20.25;18.50;;;;;20.34;65.45;99575.06;5073823;28;46062;-66
2022/05/23 12:14:43;;;;;;;;;23.25;21.00;;;;;20.36;65.51;99584.94;5073552;28;45457;-65
2022/05/23 12:17:20;;;;;;;;;25.00;22.25;;;;;20.44;65.27;99582.88;5073370;28;45589;-66
2022/05/23 12:19:53;;;;;;;;;27.75;24.25;;;;;20.31;64.95;99559.78;5073375;28;45237;-62
2022/05/23 12:22:35;;;;;;;;;19.67;16.33;;;;;20.53;65.08;99588.94;5073129;28;46164;-67
2022/05/23 12:25:09;;;;;;;;;24.50;23.50;;;;;20.58;64.75;99589.66;5072880;28;45540;-65
2022/05/23 12:27:39;;;;;;;;;18.25;18.25;;;;;20.32;63.39;99577.81;5073192;28;45398;-64
2022/05/23 12:30:16;;;;;;;;;23.25;21.25;;;;;20.42;63.31;99603.72;5073342;28;45253;-63
2022/05/23 12:32:43;;;;;;;;;19.00;17.75;;;;;20.32;63.74;99587.81;5072836;28;46407;-65
2022/05/23 12:35:13;;;;;;;;;20.50;19.75;;;;;20.44;63.21;99612.72;5073138;28;45349;-64
2022/05/23 12:37:47;;;;;;;;;22.67;17.67;;;;;20.37;63.08;99588.53;5073202;28;45378;-65